Terminal Aerodrome Forecast
Issued by NWS Northern Indiana

Home | Current Version | Previous Version | Graphics & Text | Print | Product List | Glossary On
Versions: 1 2 3 4 5 6 7 8 9 10 11 12 13 14 15 16 17
000
FTUS43 KIWX 160500
TAFFWA
TAF
KFWA 160527Z 1606/1706 14007KT 3SM -DZ BR OVC009
     FM160900 22007KT 2SM -RA BR OVC005
     FM161500 24011KT 2SM -RA BR OVC005
     FM161800 26012G20KT 5SM BR VCSH OVC008
     FM170200 27017G24KT P6SM OVC010=

USA.gov is the U.S. government's official web portal to all federal, state and local government web resources and services.